Map

Track Data

SID SEASON NUMBER BASIN SUBBASIN NAME ISO_TIME NATURE LAT LON WMO_WIND WMO_PRES WMO_AGENCY TRACK_TYPE DIST2LAND LANDFALL IFLAG USA_AGENCY USA_ATCF_ID USA_LAT USA_LON USA_RECORD USA_STATUS USA_WIND USA_PRES USA_SSHS USA_R34_NE USA_R34_SE USA_R34_SW USA_R34_NW USA_R50_NE USA_R50_SE USA_R50_SW USA_R50_NW USA_R64_NE USA_R64_SE USA_R64_SW USA_R64_NW USA_POCI USA_ROCI USA_RMW USA_EYE TOKYO_LAT TOKYO_LON TOKYO_GRADE TOKYO_WIND TOKYO_PRES TOKYO_R50_DIR TOKYO_R50_LONG TOKYO_R50_SHORT TOKYO_R30_DIR TOKYO_R30_LONG TOKYO_R30_SHORT TOKYO_LAND CMA_LAT CMA_LON CMA_CAT CMA_WIND CMA_PRES HKO_LAT HKO_LON HKO_CAT HKO_WIND HKO_PRES NEWDELHI_LAT NEWDELHI_LON NEWDELHI_GRADE NEWDELHI_WIND NEWDELHI_PRES NEWDELHI_CI NEWDELHI_DP NEWDELHI_POCI REUNION_LAT REUNION_LON REUNION_TYPE REUNION_WIND REUNION_PRES REUNION_TNUM REUNION_CI REUNION_RMW REUNION_R34_NE REUNION_R34_SE REUNION_R34_SW REUNION_R34_NW REUNION_R50_NE REUNION_R50_SE REUNION_R50_SW REUNION_R50_NW REUNION_R64_NE REUNION_R64_SE REUNION_R64_SW REUNION_R64_NW BOM_LAT BOM_LON BOM_TYPE BOM_WIND BOM_PRES BOM_TNUM BOM_CI BOM_RMW BOM_R34_NE BOM_R34_SE BOM_R34_SW BOM_R34_NW BOM_R50_NE BOM_R50_SE BOM_R50_SW BOM_R50_NW BOM_R64_NE BOM_R64_SE BOM_R64_SW BOM_R64_NW BOM_ROCI BOM_POCI BOM_EYE BOM_POS_METHOD BOM_PRES_METHOD NADI_LAT NADI_LON NADI_CAT NADI_WIND NADI_PRES WELLINGTON_LAT WELLINGTON_LON WELLINGTON_WIND WELLINGTON_PRES DS824_LAT DS824_LON DS824_STAGE DS824_WIND DS824_PRES TD9636_LAT TD9636_LON TD9636_STAGE TD9636_WIND TD9636_PRES TD9635_LAT TD9635_LON TD9635_WIND TD9635_PRES TD9635_ROCI NEUMANN_LAT NEUMANN_LON NEUMANN_CLASS NEUMANN_WIND NEUMANN_PRES MLC_LAT MLC_LON MLC_CLASS MLC_WIND MLC_PRES USA_GUST BOM_GUST BOM_GUST_PER REUNION_GUST REUNION_GUST_PER USA_SEAHGT USA_SEARAD_NE USA_SEARAD_SE USA_SEARAD_SW USA_SEARAD_NW STORM_SPEED STORM_DIR
1985222N32280 1985 65 NA NA CLAUDETTE 1985-08-09 18:00:00 SS 31.5000 -80.5000 25 1013 hurdat_atl main 58 58 O_____________ hurdat_atl AL031985 31.5000 -80.5000 SD 25 1013 -2 14 68
1985222N32280 1985 65 NA NA CLAUDETTE 1985-08-09 21:00:00 SS 31.7505 -79.7631 main 91 91 P_____________ AL031985 31.7505 -79.7631 SD 25 1012 -2 14 69
1985222N32280 1985 65 NA NA CLAUDETTE 1985-08-10 00:00:00 SS 32.0000 -79.0000 25 1012 hurdat_atl main 114 114 O_____________ hurdat_atl AL031985 32.0000 -79.0000 SD 25 1012 -2 14 69
1985222N32280 1985 65 NA NA CLAUDETTE 1985-08-10 03:00:00 SS 32.2501 -78.2124 main 136 136 P_____________ AL031985 32.2501 -78.2124 SD 25 1011 -2 14 68
1985222N32280 1985 65 NA NA CLAUDETTE 1985-08-10 06:00:00 SS 32.5000 -77.5000 25 1011 hurdat_atl main 162 153 O_____________ hurdat_atl AL031985 32.5000 -77.5000 SD 25 1011 -2 12 64
1985222N32280 1985 65 NA NA CLAUDETTE 1985-08-10 09:00:00 SS 32.7491 -76.9768 main 162 153 P_____________ AL031985 32.7491 -76.9768 SD 27 1010 -2 10 59
1985222N32280 1985 65 NA NA CLAUDETTE 1985-08-10 12:00:00 SS 33.0000 -76.5000 30 1009 hurdat_atl main 171 169 O_____________ hurdat_atl AL031985 33.0000 -76.5000 SD 30 1009 -2 10 60
1985222N32280 1985 65 NA NA CLAUDETTE 1985-08-10 15:00:00 SS 33.2498 -75.9222 main 176 162 P_____________ AL031985 33.2498 -75.9222 SD 30 1008 -2 11 64
1985222N32280 1985 65 NA NA CLAUDETTE 1985-08-10 18:00:00 SS 33.5000 -75.3000 30 1007 hurdat_atl main 173 171 O_____________ hurdat_atl AL031985 33.5000 -75.3000 SD 30 1007 -2 12 64
1985222N32280 1985 65 NA NA CLAUDETTE 1985-08-10 21:00:00 SS 33.7648 -74.6575 main 191 191 P_____________ AL031985 33.7648 -74.6575 SD 32 1006 -2 12 65
1985222N32280 1985 65 NA NA CLAUDETTE 1985-08-11 00:00:00 TS 34.0000 -74.0000 35 1005 hurdat_atl main 233 233 O_____________ hurdat_atl AL031985 34.0000 -74.0000 TS 35 1005 0 12 70
1985222N32280 1985 65 NA NA CLAUDETTE 1985-08-11 03:00:00 TS 34.1723 -73.3421 main 267 267 P_____________ AL031985 34.1723 -73.3421 TS 35 1004 0 11 74
1985222N32280 1985 65 NA NA CLAUDETTE 1985-08-11 06:00:00 TS 34.3000 -72.7000 35 1004 hurdat_atl main 304 304 O_____________ hurdat_atl AL031985 34.3000 -72.7000 TS 35 1004 0 11 77
1985222N32280 1985 65 NA NA CLAUDETTE 1985-08-11 09:00:00 TS 34.4071 -72.0922 main 345 345 P_____________ AL031985 34.4071 -72.0922 TS 35 1003 0 10 79
1985222N32280 1985 65 NA NA CLAUDETTE 1985-08-11 12:00:00 TS 34.5000 -71.5000 35 1003 hurdat_atl main 390 390 O_____________ hurdat_atl AL031985 34.5000 -71.5000 TS 35 1003 0 10 78
1985222N32280 1985 65 NA NA CLAUDETTE 1985-08-11 15:00:00 TS 34.6072 -70.9000 main 437 437 P_____________ AL031985 34.6072 -70.9000 TS 37 1002 0 10 79
1985222N32280 1985 65 NA NA CLAUDETTE 1985-08-11 18:00:00 TS 34.7000 -70.3000 40 1002 hurdat_atl main 486 486 O_____________ hurdat_atl AL031985 34.7000 -70.3000 TS 40 1002 0 10 80
1985222N32280 1985 65 NA NA CLAUDETTE 1985-08-11 21:00:00 TS 34.7720 -69.7151 main 536 536 P_____________ AL031985 34.7720 -69.7151 TS 40 1001 0 10 84
1985222N32280 1985 65 NA NA CLAUDETTE 1985-08-12 00:00:00 TS 34.8000 -69.1000 40 1001 hurdat_atl main 589 589 O_____________ hurdat_atl AL031985 34.8000 -69.1000 TS 40 1001 0 11 90
1985222N32280 1985 65 NA NA CLAUDETTE 1985-08-12 03:00:00 TS 34.7725 -68.4074 main 652 652 P_____________ AL031985 34.7725 -68.4074 TS 42 1000 0 12 95
1985222N32280 1985 65 NA NA CLAUDETTE 1985-08-12 06:00:00 TS 34.7000 -67.7000 45 1000 hurdat_atl main 717 717 O_____________ hurdat_atl AL031985 34.7000 -67.7000 TS 45 1000 0 11 99
1985222N32280 1985 65 NA NA CLAUDETTE 1985-08-12 09:00:00 TS 34.5993 -67.0574 main 772 772 P_____________ AL031985 34.5993 -67.0574 TS 45 999 0 11 101
1985222N32280 1985 65 NA NA CLAUDETTE 1985-08-12 12:00:00 TS 34.5000 -66.4000 45 999 hurdat_atl main 837 837 O_____________ hurdat_atl AL031985 34.5000 -66.4000 TS 45 999 0 11 99
1985222N32280 1985 65 NA NA CLAUDETTE 1985-08-12 15:00:00 TS 34.4270 -65.6798 main 895 895 P_____________ AL031985 34.4270 -65.6798 TS 47 998 0 12 95
1985222N32280 1985 65 NA NA CLAUDETTE 1985-08-12 18:00:00 TS 34.4000 -64.9000 50 997 hurdat_atl main 926 926 O_____________ hurdat_atl AL031985 34.4000 -64.9000 TS 50 997 0 13 91
1985222N32280 1985 65 NA NA CLAUDETTE 1985-08-12 21:00:00 TS 34.3972 -64.0642 main 961 961 P_____________ AL031985 34.3972 -64.0642 TS 50 996 0 14 86
1985222N32280 1985 65 NA NA CLAUDETTE 1985-08-13 00:00:00 TS 34.5000 -63.2000 50 995 hurdat_atl main 996 996 O_____________ hurdat_atl AL031985 34.5000 -63.2000 TS 50 995 0 14 75
1985222N32280 1985 65 NA NA CLAUDETTE 1985-08-13 03:00:00 TS 34.7764 -62.3733 main 999 987 P_____________ AL031985 34.7764 -62.3733 TS 52 994 0 15 67
1985222N32280 1985 65 NA NA CLAUDETTE 1985-08-13 06:00:00 TS 35.1000 -61.5000 55 993 hurdat_atl main 989 983 O_____________ hurdat_atl AL031985 35.1000 -61.5000 TS 55 993 0 16 69
1985222N32280 1985 65 NA NA CLAUDETTE 1985-08-13 09:00:00 TS 35.3597 -60.5233 main 990 990 P_____________ AL031985 35.3597 -60.5233 TS 55 992 0 17 76
1985222N32280 1985 65 NA NA CLAUDETTE 1985-08-13 12:00:00 TS 35.5000 -59.5000 55 991 hurdat_atl main 1018 1018 O_____________ hurdat_atl AL031985 35.5000 -59.5000 TS 55 991 0 16 87
1985222N32280 1985 65 NA NA CLAUDETTE 1985-08-13 15:00:00 TS 35.4431 -58.5362 main 1072 1072 P_____________ AL031985 35.4431 -58.5362 TS 57 990 0 16 97
1985222N32280 1985 65 NA NA CLAUDETTE 1985-08-13 18:00:00 TS 35.3000 -57.5000 60 989 hurdat_atl main 1130 1130 O_____________ hurdat_atl AL031985 35.3000 -57.5000 TS 60 989 0 19 98
1985222N32280 1985 65 NA NA CLAUDETTE 1985-08-13 21:00:00 TS 35.1773 -56.2866 main 1184 1184 P_____________ AL031985 35.1773 -56.2866 TS 60 988 0 20 96
1985222N32280 1985 65 NA NA CLAUDETTE 1985-08-14 00:00:00 TS 35.1000 -55.0000 60 988 hurdat_atl main 1236 1236 O_____________ hurdat_atl AL031985 35.1000 -55.0000 TS 60 988 0 21 91
1985222N32280 1985 65 NA NA CLAUDETTE 1985-08-14 03:00:00 TS 35.1265 -53.7434 main 1279 1268 P_____________ AL031985 35.1265 -53.7434 TS 62 988 0 20 87
1985222N32280 1985 65 NA NA CLAUDETTE 1985-08-14 06:00:00 TS 35.2000 -52.5000 65 988 hurdat_atl main 1269 1269 O_____________ hurdat_atl AL031985 35.2000 -52.5000 HU 65 988 1 20 87
1985222N32280 1985 65 NA NA CLAUDETTE 1985-08-14 09:00:00 TS 35.2413 -51.2846 main 1278 1270 P_____________ AL031985 35.2413 -51.2846 HU 65 987 1 20 87
1985222N32280 1985 65 NA NA CLAUDETTE 1985-08-14 12:00:00 TS 35.3000 -50.1000 65 987 hurdat_atl main 1283 1283 O_____________ hurdat_atl AL031985 35.3000 -50.1000 HU 65 987 1 19 85
1985222N32280 1985 65 NA NA CLAUDETTE 1985-08-14 15:00:00 TS 35.3980 -48.9652 main 1294 1294 P_____________ AL031985 35.3980 -48.9652 HU 65 986 1 19 84
1985222N32280 1985 65 NA NA CLAUDETTE 1985-08-14 18:00:00 TS 35.5000 -47.8000 65 986 hurdat_atl main 1314 1314 O_____________ hurdat_atl AL031985 35.5000 -47.8000 HU 65 986 1 20 85
1985222N32280 1985 65 NA NA CLAUDETTE 1985-08-14 21:00:00 TS 35.5568 -46.5220 main 1344 1344 P_____________ AL031985 35.5568 -46.5220 HU 67 985 1 21 87
1985222N32280 1985 65 NA NA CLAUDETTE 1985-08-15 00:00:00 TS 35.6000 -45.2000 70 985 hurdat_atl main 1392 1392 O_____________ hurdat_atl AL031985 35.6000 -45.2000 HU 70 985 1 21 88
1985222N32280 1985 65 NA NA CLAUDETTE 1985-08-15 03:00:00 TS 35.6486 -43.8998 main 1447 1441 P_____________ AL031985 35.6486 -43.8998 HU 70 983 1 21 87
1985222N32280 1985 65 NA NA CLAUDETTE 1985-08-15 06:00:00 TS 35.7000 -42.6000 70 981 hurdat_atl main 1498 1498 O_____________ hurdat_atl AL031985 35.7000 -42.6000 HU 70 981 1 21 88
1985222N32280 1985 65 NA NA CLAUDETTE 1985-08-15 09:00:00 TS 35.7101 -41.3277 main 1563 1563 P_____________ AL031985 35.7101 -41.3277 HU 72 980 1 21 87
1985222N32280 1985 65 NA NA CLAUDETTE 1985-08-15 12:00:00 TS 35.8000 -40.0000 75 980 hurdat_atl main 1625 1625 O_____________ hurdat_atl AL031985 35.8000 -40.0000 HU 75 980 1 23 82
1985222N32280 1985 65 NA NA CLAUDETTE 1985-08-15 15:00:00 TS 36.0256 -38.4921 main 1694 1694 P_____________ AL031985 36.0256 -38.4921 HU 75 980 1 25 76
1985222N32280 1985 65 NA NA CLAUDETTE 1985-08-15 18:00:00 TS 36.4000 -37.0000 75 981 hurdat_atl main 1753 1753 O_____________ hurdat_atl AL031985 36.4000 -37.0000 HU 75 981 1 24 69
1985222N32280 1985 65 NA NA CLAUDETTE 1985-08-15 21:00:00 TS 36.8641 -35.7388 main 1796 1796 P_____________ AL031985 36.8641 -35.7388 HU 67 987 1 23 61
1985222N32280 1985 65 NA NA CLAUDETTE 1985-08-16 00:00:00 TS 37.5000 -34.5000 60 993 hurdat_atl main 1831 1830 O_____________ hurdat_atl AL031985 37.5000 -34.5000 TS 60 993 0 26 55
1985222N32280 1985 65 NA NA CLAUDETTE 1985-08-16 03:00:00 TS 38.3194 -33.0808 main 1871 1830 P_____________ AL031985 38.3194 -33.0808 TS 52 995 0 28 53
1985222N32280 1985 65 NA NA CLAUDETTE 1985-08-16 06:00:00 TS 39.2000 -31.6000 45 998 hurdat_atl main 1823 1764 O_____________ hurdat_atl AL031985 39.2000 -31.6000 TS 45 998 0 28 55
1985222N32280 1985 65 NA NA CLAUDETTE 1985-08-16 09:00:00 TS 39.9330 -30.1511 main 1764 1625 P_____________ AL031985 39.9330 -30.1511 TS 42 999 0 27 56
1985222N32280 1985 65 NA NA CLAUDETTE 1985-08-16 12:00:00 TS 40.7000 -28.7000 40 1001 hurdat_atl main 1617 1480 O_____________ hurdat_atl AL031985 40.7000 -28.7000 TS 40 1001 0 28 53
1985222N32280 1985 65 NA NA CLAUDETTE 1985-08-16 15:00:00 TS 41.6179 -27.2196 main 1472 1341 P_____________ AL031985 41.6179 -27.2196 TS 40 1002 0 29 50
1985222N32280 1985 65 NA NA CLAUDETTE 1985-08-16 18:00:00 TS 42.6000 -25.7000 40 1003 hurdat_atl main 1331 1202 O_____________ hurdat_atl AL031985 42.6000 -25.7000 TS 40 1003 0 30 49
1985222N32280 1985 65 NA NA CLAUDETTE 1985-08-16 21:00:00 TS 43.5646 -24.1271 main 1193 1075 P_____________ AL031985 43.5646 -24.1271 TS 40 1004 0 30 51
1985222N32280 1985 65 NA NA CLAUDETTE 1985-08-17 00:00:00 ET 44.5000 -22.5000 40 1005 hurdat_atl main 1068 O_____________ hurdat_atl AL031985 44.5000 -22.5000 EX 40 1005 -4 30 51

About IBTrACS Database

This database is a web-friendly format of International Best Track Archive for Climate Stewardship (IBTrACS), a global best track data archive curated by NOAA dating back to 1842.

Updated: 2021-10-08